sensor_id;sensor_type;location;lat;lon;timestamp;pressure;altitude;pressure_sealevel;temperature;humidity
77250;BME280;66287;42.658;27.568;2023-02-01T00:02:22;100047.13;;;7.88;60.96
77250;BME280;66287;42.658;27.568;2023-02-01T00:04:47;100059.13;;;7.85;61.16
77250;BME280;66287;42.658;27.568;2023-02-01T00:07:13;100046.84;;;7.83;60.77
77250;BME280;66287;42.658;27.568;2023-02-01T00:09:38;100050.75;;;7.80;61.19
77250;BME280;66287;42.658;27.568;2023-02-01T00:12:04;100050.34;;;7.77;61.24
77250;BME280;66287;42.658;27.568;2023-02-01T00:14:29;100046.16;;;7.74;61.01
77250;BME280;66287;42.658;27.568;2023-02-01T00:16:54;100038.44;;;7.71;60.78
77250;BME280;66287;42.658;27.568;2023-02-01T00:19:20;100053.97;;;7.69;61.76
77250;BME280;66287;42.658;27.568;2023-02-01T00:21:46;100041.88;;;7.65;60.96
77250;BME280;66287;42.658;27.568;2023-02-01T00:24:11;100039.34;;;7.64;61.46
77250;BME280;66287;42.658;27.568;2023-02-01T00:26:38;100043.25;;;7.61;61.72
77250;BME280;66287;42.658;27.568;2023-02-01T00:29:05;100031.84;;;7.59;61.14
77250;BME280;66287;42.658;27.568;2023-02-01T00:31:31;100039.28;;;7.57;61.06
77250;BME280;66287;42.658;27.568;2023-02-01T00:33:57;100046.72;;;7.55;61.86
77250;BME280;66287;42.658;27.568;2023-02-01T00:36:22;100035.66;;;7.50;61.79
77250;BME280;66287;42.658;27.568;2023-02-01T00:38:48;100036.69;;;7.49;61.64
77250;BME280;66287;42.658;27.568;2023-02-01T00:41:14;100044.94;;;7.47;61.23
77250;BME280;66287;42.658;27.568;2023-02-01T00:43:40;100040.75;;;7.45;61.70
77250;BME280;66287;42.658;27.568;2023-02-01T00:46:05;100040.28;;;7.41;61.70
77250;BME280;66287;42.658;27.568;2023-02-01T00:48:31;100033.22;;;7.40;61.71
77250;BME280;66287;42.658;27.568;2023-02-01T00:51:00;100032.78;;;7.37;61.63
77250;BME280;66287;42.658;27.568;2023-02-01T00:53:26;100038.38;;;7.35;61.28
77250;BME280;66287;42.658;27.568;2023-02-01T00:55:52;100039.75;;;7.31;61.94
77250;BME280;66287;42.658;27.568;2023-02-01T00:58:17;100045.34;;;7.30;62.20
77250;BME280;66287;42.658;27.568;2023-02-01T01:00:42;100041.97;;;7.28;61.17
77250;BME280;66287;42.658;27.568;2023-02-01T01:03:08;100046.72;;;7.25;61.93
77250;BME280;66287;42.658;27.568;2023-02-01T01:05:43;100040.66;;;7.23;61.84
77250;BME280;66287;42.658;27.568;2023-02-01T01:08:09;100044.03;;;7.11;63.04
77250;BME280;66287;42.658;27.568;2023-02-01T01:10:35;100046.25;;;7.07;64.07
77250;BME280;66287;42.658;27.568;2023-02-01T01:13:00;100044.75;;;7.05;64.95
77250;BME280;66287;42.658;27.568;2023-02-01T01:15:25;100035.28;;;7.09;65.75
77250;BME280;66287;42.658;27.568;2023-02-01T01:17:51;100037.06;;;7.16;65.55
77250;BME280;66287;42.658;27.568;2023-02-01T01:20:16;100043.38;;;7.23;65.64
77250;BME280;66287;42.658;27.568;2023-02-01T01:22:42;100048.69;;;7.32;65.28
77250;BME280;66287;42.658;27.568;2023-02-01T01:25:07;100047.75;;;7.39;65.94
77250;BME280;66287;42.658;27.568;2023-02-01T01:27:33;100049.69;;;7.45;65.47
77250;BME280;66287;42.658;27.568;2023-02-01T01:29:58;100047.47;;;7.49;65.52
77250;BME280;66287;42.658;27.568;2023-02-01T01:32:23;100050.06;;;7.57;65.72
77250;BME280;66287;42.658;27.568;2023-02-01T01:34:49;100049.31;;;7.63;66.02
77250;BME280;66287;42.658;27.568;2023-02-01T01:37:15;100054.16;;;7.68;65.71
77250;BME280;66287;42.658;27.568;2023-02-01T01:39:40;100054.44;;;7.73;65.75
77250;BME280;66287;42.658;27.568;2023-02-01T01:42:07;100042.06;;;7.78;65.30
77250;BME280;66287;42.658;27.568;2023-02-01T01:47:18;100042.38;;;7.90;65.19
77250;BME280;66287;42.658;27.568;2023-02-01T01:49:43;100039.13;;;7.94;65.98
77250;BME280;66287;42.658;27.568;2023-02-01T01:52:09;100049.34;;;7.99;65.83
77250;BME280;66287;42.658;27.568;2023-02-01T01:54:40;100043.19;;;8.05;66.20
77250;BME280;66287;42.658;27.568;2023-02-01T01:57:18;100042.63;;;8.10;66.01
77250;BME280;66287;42.658;27.568;2023-02-01T01:59:46;100050.34;;;8.13;65.40
77250;BME280;66287;42.658;27.568;2023-02-01T02:02:15;100047.06;;;8.17;65.42
77250;BME280;66287;42.658;27.568;2023-02-01T02:04:41;100047.13;;;8.24;65.17
77250;BME280;66287;42.658;27.568;2023-02-01T02:07:08;100044.03;;;8.27;65.71
77250;BME280;66287;42.658;27.568;2023-02-01T02:09:35;100039.94;;;8.31;65.62
77250;BME280;66287;42.658;27.568;2023-02-01T02:12:00;100050.38;;;8.34;65.53
77250;BME280;66287;42.658;27.568;2023-02-01T02:14:26;100055.41;;;8.37;65.27
77250;BME280;66287;42.658;27.568;2023-02-01T02:37:08;100044.66;;;8.65;64.92
77250;BME280;66287;42.658;27.568;2023-02-01T02:39:48;100042.59;;;8.67;64.16
77250;BME280;66287;42.658;27.568;2023-02-01T02:42:23;100046.78;;;8.70;63.58
77250;BME280;66287;42.658;27.568;2023-02-01T02:45:24;100047.16;;;8.67;63.39
77250;BME280;66287;42.658;27.568;2023-02-01T02:50:48;100040.47;;;8.62;62.58
77250;BME280;66287;42.658;27.568;2023-02-01T02:53:39;100047.50;;;8.57;61.99
77250;BME280;66287;42.658;27.568;2023-02-01T02:56:24;100047.25;;;8.52;61.88
77250;BME280;66287;42.658;27.568;2023-02-01T02:59:11;100046.13;;;8.46;61.53
77250;BME280;66287;42.658;27.568;2023-02-01T03:01:57;100052.94;;;8.42;60.59
77250;BME280;66287;42.658;27.568;2023-02-01T03:04:41;100046.66;;;8.35;61.60
77250;BME280;66287;42.658;27.568;2023-02-01T03:07:10;100039.28;;;8.29;61.58
77250;BME280;66287;42.658;27.568;2023-02-01T03:09:37;100042.56;;;8.24;61.18
77250;BME280;66287;42.658;27.568;2023-02-01T03:12:07;100044.78;;;8.21;60.85
77250;BME280;66287;42.658;27.568;2023-02-01T03:14:54;100052.47;;;8.17;61.05
77250;BME280;66287;42.658;27.568;2023-02-01T03:17:24;100056.56;;;8.13;61.27
77250;BME280;66287;42.658;27.568;2023-02-01T03:19:51;100067.28;;;8.07;61.33
77250;BME280;66287;42.658;27.568;2023-02-01T03:22:20;100057.88;;;8.03;61.02
77250;BME280;66287;42.658;27.568;2023-02-01T03:24:49;100059.94;;;8.01;60.95
77250;BME280;66287;42.658;27.568;2023-02-01T03:29:44;100060.06;;;7.92;61.17
77250;BME280;66287;42.658;27.568;2023-02-01T03:32:11;100070.41;;;7.89;61.65
77250;BME280;66287;42.658;27.568;2023-02-01T03:34:37;100070.56;;;7.87;61.04
77250;BME280;66287;42.658;27.568;2023-02-01T03:37:04;100069.94;;;7.85;61.38
77250;BME280;66287;42.658;27.568;2023-02-01T03:39:39;100074.03;;;7.81;60.80
77250;BME280;66287;42.658;27.568;2023-02-01T03:42:24;100061.97;;;7.77;61.49
77250;BME280;66287;42.658;27.568;2023-02-01T03:45:04;100062.50;;;7.73;60.68
77250;BME280;66287;42.658;27.568;2023-02-01T03:47:33;100065.59;;;7.70;61.50
77250;BME280;66287;42.658;27.568;2023-02-01T03:50:02;100065.13;;;7.66;61.24
77250;BME280;66287;42.658;27.568;2023-02-01T03:52:30;100069.22;;;7.62;61.41
77250;BME280;66287;42.658;27.568;2023-02-01T03:55:02;100073.94;;;7.60;61.10
77250;BME280;66287;42.658;27.568;2023-02-01T03:57:32;100069.97;;;7.56;61.51
77250;BME280;66287;42.658;27.568;2023-02-01T04:00:06;100066.63;;;7.54;61.27
77250;BME280;66287;42.658;27.568;2023-02-01T04:02:39;100070.91;;;7.48;61.88
77250;BME280;66287;42.658;27.568;2023-02-01T04:05:04;100076.28;;;7.48;61.27
77250;BME280;66287;42.658;27.568;2023-02-01T04:07:30;100086.22;;;7.48;61.40
77250;BME280;66287;42.658;27.568;2023-02-01T04:09:55;100083.91;;;7.45;61.72
77250;BME280;66287;42.658;27.568;2023-02-01T04:12:21;100097.75;;;7.42;61.03
77250;BME280;66287;42.658;27.568;2023-02-01T04:14:47;100096.28;;;7.39;61.10
77250;BME280;66287;42.658;27.568;2023-02-01T04:17:12;100101.22;;;7.36;61.37
77250;BME280;66287;42.658;27.568;2023-02-01T04:19:38;100092.47;;;7.34;60.97
77250;BME280;66287;42.658;27.568;2023-02-01T04:22:03;100101.56;;;7.33;61.73
77250;BME280;66287;42.658;27.568;2023-02-01T04:24:29;100105.66;;;7.29;61.26
77250;BME280;66287;42.658;27.568;2023-02-01T04:26:54;100106.84;;;7.26;61.77
77250;BME280;66287;42.658;27.568;2023-02-01T04:29:20;100115.13;;;7.24;61.48
77250;BME280;66287;42.658;27.568;2023-02-01T04:31:45;100119.19;;;7.20;62.01
77250;BME280;66287;42.658;27.568;2023-02-01T04:34:11;100119.59;;;7.17;61.57
77250;BME280;66287;42.658;27.568;2023-02-01T04:36:36;100115.94;;;7.10;61.85
77250;BME280;66287;42.658;27.568;2023-02-01T04:39:02;100113.13;;;7.04;63.01
77250;BME280;66287;42.658;27.568;2023-02-01T04:41:28;100125.09;;;7.01;63.75
77250;BME280;66287;42.658;27.568;2023-02-01T04:43:55;100129.47;;;7.02;64.28
77250;BME280;66287;42.658;27.568;2023-02-01T04:46:20;100125.56;;;7.05;64.35
77250;BME280;66287;42.658;27.568;2023-02-01T04:48:46;100136.47;;;7.11;64.61
77250;BME280;66287;42.658;27.568;2023-02-01T04:51:11;100134.09;;;7.16;64.48
77250;BME280;66287;42.658;27.568;2023-02-01T04:53:37;100135.00;;;7.23;64.43
77250;BME280;66287;42.658;27.568;2023-02-01T04:56:03;100144.03;;;7.31;65.12
77250;BME280;66287;42.658;27.568;2023-02-01T04:58:28;100141.66;;;7.36;64.61
77250;BME280;66287;42.658;27.568;2023-02-01T05:00:54;100146.28;;;7.42;64.87
77250;BME280;66287;42.658;27.568;2023-02-01T05:03:19;100147.59;;;7.46;64.90
77250;BME280;66287;42.658;27.568;2023-02-01T05:05:46;100149.75;;;7.50;64.84
77250;BME280;66287;42.658;27.568;2023-02-01T05:08:12;100153.56;;;7.56;65.22
77250;BME280;66287;42.658;27.568;2023-02-01T05:10:37;100159.22;;;7.61;65.07
77250;BME280;66287;42.658;27.568;2023-02-01T05:13:03;100157.66;;;7.67;65.39
77250;BME280;66287;42.658;27.568;2023-02-01T05:15:47;100161.66;;;7.71;64.83
77250;BME280;66287;42.658;27.568;2023-02-01T05:18:12;100164.47;;;7.77;64.72
77250;BME280;66287;42.658;27.568;2023-02-01T05:20:38;100163.88;;;7.82;65.10
77250;BME280;66287;42.658;27.568;2023-02-01T05:23:03;100156.91;;;7.87;65.17
77250;BME280;66287;42.658;27.568;2023-02-01T05:25:29;100150.13;;;7.91;64.68
77250;BME280;66287;42.658;27.568;2023-02-01T05:27:54;100140.28;;;7.99;64.20
77250;BME280;66287;42.658;27.568;2023-02-01T05:30:20;100148.63;;;8.04;64.93
77250;BME280;66287;42.658;27.568;2023-02-01T05:32:48;100148.91;;;8.09;64.18
77250;BME280;66287;42.658;27.568;2023-02-01T05:35:14;100148.53;;;8.12;64.23
77250;BME280;66287;42.658;27.568;2023-02-01T05:37:39;100152.53;;;8.16;64.22
77250;BME280;66287;42.658;27.568;2023-02-01T05:40:05;100147.38;;;8.21;64.00
77250;BME280;66287;42.658;27.568;2023-02-01T05:42:30;100140.56;;;8.25;63.92
77250;BME280;66287;42.658;27.568;2023-02-01T05:44:56;100152.69;;;8.29;63.96
77250;BME280;66287;42.658;27.568;2023-02-01T05:47:21;100153.81;;;8.35;63.71
77250;BME280;66287;42.658;27.568;2023-02-01T05:49:47;100156.75;;;8.54;63.80
77250;BME280;66287;42.658;27.568;2023-02-01T05:52:12;100162.81;;;8.78;63.60
77250;BME280;66287;42.658;27.568;2023-02-01T05:54:38;100159.50;;;8.97;61.67
77250;BME280;66287;42.658;27.568;2023-02-01T05:57:03;100170.03;;;9.13;61.47
77250;BME280;66287;42.658;27.568;2023-02-01T05:59:28;100172.34;;;9.16;61.01
77250;BME280;66287;42.658;27.568;2023-02-01T06:01:54;100175.63;;;9.12;60.79
77250;BME280;66287;42.658;27.568;2023-02-01T06:04:20;100173.50;;;9.07;59.86
77250;BME280;66287;42.658;27.568;2023-02-01T06:06:45;100173.44;;;9.01;59.93
77250;BME280;66287;42.658;27.568;2023-02-01T06:09:11;100190.25;;;8.96;60.98
77250;BME280;66287;42.658;27.568;2023-02-01T06:11:36;100186.91;;;8.94;59.95
77250;BME280;66287;42.658;27.568;2023-02-01T06:14:01;100187.91;;;8.93;59.67
77250;BME280;66287;42.658;27.568;2023-02-01T06:16:27;100187.28;;;8.91;59.82
77250;BME280;66287;42.658;27.568;2023-02-01T06:18:52;100185.97;;;8.87;60.18
77250;BME280;66287;42.658;27.568;2023-02-01T06:21:19;100189.31;;;8.89;60.56
77250;BME280;66287;42.658;27.568;2023-02-01T06:23:52;100195.38;;;8.91;60.44
77250;BME280;66287;42.658;27.568;2023-02-01T06:26:18;100200.03;;;8.97;60.36
77250;BME280;66287;42.658;27.568;2023-02-01T06:28:44;100194.03;;;9.02;60.47
77250;BME280;66287;42.658;27.568;2023-02-01T06:31:09;100199.31;;;9.10;60.35
77250;BME280;66287;42.658;27.568;2023-02-01T06:33:36;100193.44;;;9.27;60.45
77250;BME280;66287;42.658;27.568;2023-02-01T06:36:02;100191.81;;;9.61;58.77
77250;BME280;66287;42.658;27.568;2023-02-01T06:38:29;100192.94;;;10.01;58.92
77250;BME280;66287;42.658;27.568;2023-02-01T06:40:55;100198.19;;;10.09;59.02
77250;BME280;66287;42.658;27.568;2023-02-01T06:43:21;100197.75;;;10.06;58.62
77250;BME280;66287;42.658;27.568;2023-02-01T06:45:46;100193.97;;;10.00;58.90
77250;BME280;66287;42.658;27.568;2023-02-01T06:48:12;100201.25;;;9.99;60.21
77250;BME280;66287;42.658;27.568;2023-02-01T06:50:37;100197.50;;;10.00;58.84
77250;BME280;66287;42.658;27.568;2023-02-01T06:53:03;100201.25;;;9.99;57.68
77250;BME280;66287;42.658;27.568;2023-02-01T06:55:28;100205.44;;;10.02;58.01
77250;BME280;66287;42.658;27.568;2023-02-01T06:57:54;100206.25;;;10.02;58.27
77250;BME280;66287;42.658;27.568;2023-02-01T07:00:20;100197.50;;;10.00;59.30
77250;BME280;66287;42.658;27.568;2023-02-01T07:02:45;100203.34;;;9.97;59.37
77250;BME280;66287;42.658;27.568;2023-02-01T07:05:11;100208.88;;;10.17;58.19
77250;BME280;66287;42.658;27.568;2023-02-01T07:07:36;100217.84;;;10.65;58.36
77250;BME280;66287;42.658;27.568;2023-02-01T07:10:02;100216.56;;;11.35;57.21
77250;BME280;66287;42.658;27.568;2023-02-01T07:12:27;100207.75;;;12.13;56.79
77250;BME280;66287;42.658;27.568;2023-02-01T07:14:52;100206.63;;;12.85;56.44
77250;BME280;66287;42.658;27.568;2023-02-01T07:17:18;100201.00;;;13.49;55.46
77250;BME280;66287;42.658;27.568;2023-02-01T07:19:43;100202.31;;;14.08;54.87
77250;BME280;66287;42.658;27.568;2023-02-01T07:22:09;100204.69;;;14.59;54.10
77250;BME280;66287;42.658;27.568;2023-02-01T07:24:34;100208.47;;;15.06;53.45
77250;BME280;66287;42.658;27.568;2023-02-01T07:26:59;100198.13;;;15.50;52.53
77250;BME280;66287;42.658;27.568;2023-02-01T07:29:25;100205.44;;;15.91;51.96
77250;BME280;66287;42.658;27.568;2023-02-01T07:31:51;100194.72;;;16.25;51.33
77250;BME280;66287;42.658;27.568;2023-02-01T07:34:16;100203.00;;;16.53;50.09
77250;BME280;66287;42.658;27.568;2023-02-01T07:36:41;100210.94;;;16.78;48.31
77250;BME280;66287;42.658;27.568;2023-02-01T07:39:07;100214.31;;;16.97;48.09
77250;BME280;66287;42.658;27.568;2023-02-01T07:41:33;100225.44;;;17.07;45.86
77250;BME280;66287;42.658;27.568;2023-02-01T07:43:58;100230.47;;;17.27;45.36
77250;BME280;66287;42.658;27.568;2023-02-01T07:46:24;100220.03;;;17.40;44.40
77250;BME280;66287;42.658;27.568;2023-02-01T07:48:49;100226.22;;;17.64;44.45
77250;BME280;66287;42.658;27.568;2023-02-01T07:51:15;100229.88;;;17.86;43.72
77250;BME280;66287;42.658;27.568;2023-02-01T07:53:42;100231.53;;;18.04;42.81
77250;BME280;66287;42.658;27.568;2023-02-01T07:56:14;100232.50;;;18.32;41.72
77250;BME280;66287;42.658;27.568;2023-02-01T08:10:30;100243.38;;;19.57;39.72
77250;BME280;66287;42.658;27.568;2023-02-01T08:12:57;100235.19;;;19.68;37.06
77250;BME280;66287;42.658;27.568;2023-02-01T08:15:23;100232.09;;;19.91;39.20
77250;BME280;66287;42.658;27.568;2023-02-01T08:17:48;100241.31;;;20.12;40.42
77250;BME280;66287;42.658;27.568;2023-02-01T08:20:14;100232.44;;;20.37;38.50
77250;BME280;66287;42.658;27.568;2023-02-01T08:22:40;100248.59;;;20.75;38.09
77250;BME280;66287;42.658;27.568;2023-02-01T08:25:05;100249.25;;;21.08;39.27
77250;BME280;66287;42.658;27.568;2023-02-01T08:27:34;100253.44;;;21.20;37.98
77250;BME280;66287;42.658;27.568;2023-02-01T08:29:59;100259.28;;;21.34;34.86
77250;BME280;66287;42.658;27.568;2023-02-01T08:32:25;100260.41;;;21.48;37.98
77250;BME280;66287;42.658;27.568;2023-02-01T08:34:51;100256.56;;;21.59;34.53
77250;BME280;66287;42.658;27.568;2023-02-01T08:37:16;100268.72;;;21.74;36.30
77250;BME280;66287;42.658;27.568;2023-02-01T08:39:41;100263.50;;;21.77;33.78
77250;BME280;66287;42.658;27.568;2023-02-01T08:42:09;100260.72;;;21.82;38.31
77250;BME280;66287;42.658;27.568;2023-02-01T08:44:53;100268.16;;;21.82;33.44
77250;BME280;66287;42.658;27.568;2023-02-01T08:47:18;100257.66;;;21.79;33.13
77250;BME280;66287;42.658;27.568;2023-02-01T08:49:44;100269.53;;;21.84;35.65
77250;BME280;66287;42.658;27.568;2023-02-01T08:52:11;100264.59;;;21.96;34.68
77250;BME280;66287;42.658;27.568;2023-02-01T08:54:37;100277.03;;;22.14;33.94
77250;BME280;66287;42.658;27.568;2023-02-01T08:57:04;100259.88;;;22.22;31.29
77250;BME280;66287;42.658;27.568;2023-02-01T08:59:30;100270.94;;;22.32;33.91
77250;BME280;66287;42.658;27.568;2023-02-01T09:01:55;100260.94;;;22.52;34.14
77250;BME280;66287;42.658;27.568;2023-02-01T09:04:21;100255.38;;;22.67;33.39
77250;BME280;66287;42.658;27.568;2023-02-01T09:06:46;100252.28;;;22.89;34.80
77250;BME280;66287;42.658;27.568;2023-02-01T09:09:12;100246.94;;;23.02;33.12
77250;BME280;66287;42.658;27.568;2023-02-01T09:11:37;100246.34;;;23.16;33.48
77250;BME280;66287;42.658;27.568;2023-02-01T09:14:02;100254.56;;;23.26;33.42
77250;BME280;66287;42.658;27.568;2023-02-01T09:16:28;100249.53;;;23.38;31.21
77250;BME280;66287;42.658;27.568;2023-02-01T09:18:54;100248.88;;;23.51;32.61
77250;BME280;66287;42.658;27.568;2023-02-01T09:21:19;100244.38;;;23.65;31.69
77250;BME280;66287;42.658;27.568;2023-02-01T09:23:45;100236.69;;;23.91;32.26
77250;BME280;66287;42.658;27.568;2023-02-01T09:26:13;100228.53;;;24.05;30.55
77250;BME280;66287;42.658;27.568;2023-02-01T09:28:39;100227.25;;;23.97;29.50
77250;BME280;66287;42.658;27.568;2023-02-01T09:31:04;100232.03;;;23.87;29.60
77250;BME280;66287;42.658;27.568;2023-02-01T09:33:29;100221.94;;;24.01;30.41
77250;BME280;66287;42.658;27.568;2023-02-01T09:35:58;100212.66;;;24.16;27.01
77250;BME280;66287;42.658;27.568;2023-02-01T09:38:24;100216.72;;;24.23;28.98
77250;BME280;66287;42.658;27.568;2023-02-01T09:40:50;100213.22;;;24.42;28.47
77250;BME280;66287;42.658;27.568;2023-02-01T09:48:27;100197.38;;;24.95;28.66
77250;BME280;66287;42.658;27.568;2023-02-01T09:50:55;100203.06;;;25.22;27.89
77250;BME280;66287;42.658;27.568;2023-02-01T09:53:23;100201.56;;;25.30;28.47
77250;BME280;66287;42.658;27.568;2023-02-01T09:55:50;100189.88;;;25.84;28.39
77250;BME280;66287;42.658;27.568;2023-02-01T09:58:21;100196.53;;;26.16;27.86
77250;BME280;66287;42.658;27.568;2023-02-01T10:00:55;100195.91;;;26.19;28.48
77250;BME280;66287;42.658;27.568;2023-02-01T10:03:26;100190.97;;;26.16;24.90
77250;BME280;66287;42.658;27.568;2023-02-01T10:21:42;100172.69;;;27.19;25.38
77250;BME280;66287;42.658;27.568;2023-02-01T10:26:57;100173.28;;;26.25;28.01
77250;BME280;66287;42.658;27.568;2023-02-01T10:29:25;100162.47;;;25.96;26.67
77250;BME280;66287;42.658;27.568;2023-02-01T10:31:51;100164.38;;;25.82;28.31
77250;BME280;66287;42.658;27.568;2023-02-01T10:37:01;100162.25;;;24.43;27.78
77250;BME280;66287;42.658;27.568;2023-02-01T10:39:30;100163.78;;;24.01;27.94
77250;BME280;66287;42.658;27.568;2023-02-01T10:41:56;100151.53;;;24.07;26.69
77250;BME280;66287;42.658;27.568;2023-02-01T10:44:23;100151.44;;;24.17;30.00
77250;BME280;66287;42.658;27.568;2023-02-01T10:46:50;100147.56;;;24.42;26.05
77250;BME280;66287;42.658;27.568;2023-02-01T10:52:31;100137.50;;;24.22;28.27
77250;BME280;66287;42.658;27.568;2023-02-01T10:55:25;100133.56;;;24.33;29.04
77250;BME280;66287;42.658;27.568;2023-02-01T10:57:48;100139.53;;;24.41;28.78
77250;BME280;66287;42.658;27.568;2023-02-01T11:00:20;100135.56;;;23.75;31.14
77250;BME280;66287;42.658;27.568;2023-02-01T11:02:46;100130.50;;;23.53;26.64
77250;BME280;66287;42.658;27.568;2023-02-01T11:05:15;100134.66;;;23.46;27.30
77250;BME280;66287;42.658;27.568;2023-02-01T11:07:46;100131.88;;;23.17;26.94
77250;BME280;66287;42.658;27.568;2023-02-01T11:12:56;100137.41;;;23.17;30.32
77250;BME280;66287;42.658;27.568;2023-02-01T11:15:23;100125.84;;;24.01;28.29
77250;BME280;66287;42.658;27.568;2023-02-01T11:17:50;100130.69;;;24.38;28.79
77250;BME280;66287;42.658;27.568;2023-02-01T11:22:55;100122.94;;;23.25;26.25
77250;BME280;66287;42.658;27.568;2023-02-01T11:25:22;100121.63;;;23.56;27.49
77250;BME280;66287;42.658;27.568;2023-02-01T11:27:51;100122.31;;;23.96;24.56
77250;BME280;66287;42.658;27.568;2023-02-01T11:30:38;100117.34;;;24.64;26.99
77250;BME280;66287;42.658;27.568;2023-02-01T11:33:05;100124.56;;;25.22;25.87
77250;BME280;66287;42.658;27.568;2023-02-01T11:35:36;100115.41;;;25.86;25.23
77250;BME280;66287;42.658;27.568;2023-02-01T11:38:09;100115.59;;;26.36;25.90
77250;BME280;66287;42.658;27.568;2023-02-01T11:40:36;100108.63;;;26.61;23.09
77250;BME280;66287;42.658;27.568;2023-02-01T11:45:39;100108.47;;;26.93;26.44
77250;BME280;66287;42.658;27.568;2023-02-01T11:48:15;100104.47;;;27.44;24.31
77250;BME280;66287;42.658;27.568;2023-02-01T12:19:18;100109.34;;;28.88;19.04
77250;BME280;66287;42.658;27.568;2023-02-01T12:26:45;100115.34;;;27.54;20.54
77250;BME280;66287;42.658;27.568;2023-02-01T12:32:02;100106.44;;;26.35;23.36
77250;BME280;66287;42.658;27.568;2023-02-01T12:39:39;100102.56;;;27.08;23.69
77250;BME280;66287;42.658;27.568;2023-02-01T12:42:27;100103.50;;;26.27;23.35
77250;BME280;66287;42.658;27.568;2023-02-01T12:47:45;100079.34;;;25.54;23.31
77250;BME280;66287;42.658;27.568;2023-02-01T12:52:40;100077.69;;;25.85;22.91
77250;BME280;66287;42.658;27.568;2023-02-01T12:57:49;100075.22;;;26.38;24.17
77250;BME280;66287;42.658;27.568;2023-02-01T13:05:44;100074.41;;;25.51;22.15
77250;BME280;66287;42.658;27.568;2023-02-01T13:08:13;100071.19;;;25.44;23.13
77250;BME280;66287;42.658;27.568;2023-02-01T13:10:46;100068.22;;;25.40;23.94
77250;BME280;66287;42.658;27.568;2023-02-01T13:13:28;100070.28;;;25.48;25.28
77250;BME280;66287;42.658;27.568;2023-02-01T13:18:37;100071.31;;;25.20;24.38
77250;BME280;66287;42.658;27.568;2023-02-01T13:21:21;100070.63;;;25.14;24.52
77250;BME280;66287;42.658;27.568;2023-02-01T13:23:49;100070.84;;;25.18;26.16
77250;BME280;66287;42.658;27.568;2023-02-01T13:26:15;100073.59;;;25.50;27.37
77250;BME280;66287;42.658;27.568;2023-02-01T13:31:23;100084.34;;;25.70;27.57
77250;BME280;66287;42.658;27.568;2023-02-01T13:39:15;100084.44;;;26.75;24.37
77250;BME280;66287;42.658;27.568;2023-02-01T13:41:52;100081.56;;;27.25;22.40
77250;BME280;66287;42.658;27.568;2023-02-01T13:47:02;100091.19;;;27.41;24.17
77250;BME280;66287;42.658;27.568;2023-02-01T13:49:30;100091.81;;;26.30;25.08
77250;BME280;66287;42.658;27.568;2023-02-01T13:51:57;100083.69;;;25.27;23.48
77250;BME280;66287;42.658;27.568;2023-02-01T13:54:33;100081.91;;;24.80;24.71
77250;BME280;66287;42.658;27.568;2023-02-01T13:56:59;100083.84;;;24.61;22.00
77250;BME280;66287;42.658;27.568;2023-02-01T14:04:50;100079.13;;;24.19;24.39
77250;BME280;66287;42.658;27.568;2023-02-01T14:07:20;100080.38;;;23.84;23.93
77250;BME280;66287;42.658;27.568;2023-02-01T14:09:46;100079.88;;;23.53;24.77
77250;BME280;66287;42.658;27.568;2023-02-01T14:17:46;100089.44;;;22.48;27.40
77250;BME280;66287;42.658;27.568;2023-02-01T14:23:03;100091.19;;;22.24;26.94
77250;BME280;66287;42.658;27.568;2023-02-01T14:25:32;100099.16;;;22.36;27.51
77250;BME280;66287;42.658;27.568;2023-02-01T14:27:58;100089.16;;;22.45;28.35
77250;BME280;66287;42.658;27.568;2023-02-01T14:30:23;100083.91;;;22.43;27.97
77250;BME280;66287;42.658;27.568;2023-02-01T14:32:49;100089.16;;;22.45;27.96
77250;BME280;66287;42.658;27.568;2023-02-01T14:35:18;100088.34;;;22.39;27.88
77250;BME280;66287;42.658;27.568;2023-02-01T14:37:45;100091.47;;;22.27;28.46
77250;BME280;66287;42.658;27.568;2023-02-01T14:42:49;100099.81;;;22.07;29.38
77250;BME280;66287;42.658;27.568;2023-02-01T14:47:44;100104.31;;;21.78;29.86
77250;BME280;66287;42.658;27.568;2023-02-01T14:52:47;100100.47;;;21.43;30.45
77250;BME280;66287;42.658;27.568;2023-02-01T14:55:24;100097.16;;;21.26;30.37
77250;BME280;66287;42.658;27.568;2023-02-01T14:57:50;100096.31;;;21.05;30.68
77250;BME280;66287;42.658;27.568;2023-02-01T15:00:23;100094.91;;;20.87;31.23
77250;BME280;66287;42.658;27.568;2023-02-01T15:02:50;100092.97;;;20.73;31.28
77250;BME280;66287;42.658;27.568;2023-02-01T15:05:21;100093.19;;;20.56;31.37
77250;BME280;66287;42.658;27.568;2023-02-01T15:07:47;100092.31;;;20.45;31.79
77250;BME280;66287;42.658;27.568;2023-02-01T15:10:13;100096.13;;;20.34;31.92
77250;BME280;66287;42.658;27.568;2023-02-01T15:12:40;100100.44;;;20.20;32.22
77250;BME280;66287;42.658;27.568;2023-02-01T15:15:13;100097.94;;;20.08;32.48
77250;BME280;66287;42.658;27.568;2023-02-01T15:17:39;100102.81;;;19.91;32.76
77250;BME280;66287;42.658;27.568;2023-02-01T15:22:37;100114.22;;;19.68;33.70
77250;BME280;66287;42.658;27.568;2023-02-01T15:25:02;100120.78;;;19.67;34.55
77250;BME280;66287;42.658;27.568;2023-02-01T15:27:29;100110.06;;;19.65;34.87
77250;BME280;66287;42.658;27.568;2023-02-01T15:30:06;100108.09;;;19.60;34.35
77250;BME280;66287;42.658;27.568;2023-02-01T15:32:38;100110.72;;;19.45;34.79
77250;BME280;66287;42.658;27.568;2023-02-01T15:35:04;100114.97;;;19.26;35.41
77250;BME280;66287;42.658;27.568;2023-02-01T15:37:30;100114.31;;;19.14;35.79
77250;BME280;66287;42.658;27.568;2023-02-01T15:40:17;100130.38;;;19.00;35.79